createdAt,value
2022-08-02T02:46:05.612Z,0.00
2022-08-02T02:47:05.632Z,0.00
2022-08-02T02:48:07.153Z,0.00
2022-08-02T02:49:06.731Z,0.00
2022-08-02T02:50:06.757Z,0.00
2022-08-02T02:51:08.175Z,0.00
2022-08-02T02:52:07.839Z,0.00
2022-08-02T02:53:06.651Z,0.00
2022-08-02T02:54:29.873Z,0.00
2022-08-02T02:55:07.602Z,0.00
2022-08-02T02:56:06.622Z,0.00
2022-08-02T02:57:06.647Z,0.00
2022-08-02T02:58:06.616Z,0.00
2022-08-02T02:59:06.571Z,0.00
2022-08-02T03:00:06.583Z,0.00
2022-08-02T03:01:06.633Z,0.00
2022-08-02T03:02:06.544Z,0.00
2022-08-02T03:03:06.538Z,0.00
2022-08-02T03:04:06.538Z,0.00
2022-08-02T03:05:06.501Z,0.00
2022-08-02T03:06:14.759Z,0.00
2022-08-02T03:07:07.498Z,0.00
2022-08-02T03:08:06.515Z,0.00
2022-08-02T03:09:06.505Z,0.00
2022-08-02T03:10:06.472Z,0.00
2022-08-02T03:11:06.500Z,0.00
2022-08-02T03:12:06.456Z,0.00
2022-08-02T03:13:06.451Z,0.00
2022-08-02T03:14:06.435Z,0.00
2022-08-02T03:15:06.472Z,0.00
2022-08-02T03:16:06.472Z,4.00
2022-08-02T03:17:06.394Z,0.00
2022-08-02T03:18:06.385Z,0.00
2022-08-02T03:19:06.404Z,4.00
2022-08-02T03:20:06.365Z,4.00
2022-08-02T03:21:06.369Z,0.00
2022-08-02T03:22:06.513Z,4.00
2022-08-02T03:23:06.337Z,4.00
2022-08-02T03:24:06.322Z,4.00
2022-08-02T03:25:06.348Z,4.00
2022-08-02T03:26:06.335Z,4.00
2022-08-02T03:27:06.350Z,8.00
2022-08-02T03:28:06.290Z,4.00
2022-08-02T03:29:10.808Z,8.00
2022-08-02T03:30:06.302Z,8.00
2022-08-02T03:31:06.282Z,8.00
2022-08-02T03:32:06.314Z,12.00
2022-08-02T03:33:06.242Z,12.00
2022-08-02T03:34:07.265Z,16.00
2022-08-02T03:35:06.242Z,16.00
2022-08-02T03:36:06.221Z,20.00
2022-08-02T03:37:06.237Z,20.00
2022-08-02T03:38:06.201Z,24.00
2022-08-02T03:39:07.187Z,32.00
2022-08-02T03:40:06.185Z,36.00
2022-08-02T03:41:06.164Z,36.00
2022-08-02T03:42:06.167Z,40.00
2022-08-02T03:43:06.142Z,48.00
2022-08-02T03:44:06.117Z,52.00
2022-08-02T03:45:08.685Z,56.00
2022-08-02T03:46:07.116Z,60.00
2022-08-02T03:47:06.116Z,68.00
2022-08-02T03:48:34.709Z,72.00
2022-08-02T03:49:07.111Z,80.00
2022-08-02T03:50:06.066Z,88.00
2022-08-02T03:51:06.056Z,96.00
2022-08-02T03:52:06.280Z,104.00
2022-08-02T03:53:06.046Z,112.00
2022-08-02T03:54:07.070Z,120.00
2022-08-02T03:55:06.027Z,128.00
2022-08-02T03:56:06.038Z,136.00
2022-08-02T03:57:06.078Z,144.00
2022-08-02T03:58:06.001Z,152.00
2022-08-02T03:59:06.061Z,164.00
2022-08-02T04:00:05.979Z,172.00
2022-08-02T04:01:06.061Z,180.00
2022-08-02T04:02:05.987Z,192.00
2022-08-02T04:03:05.980Z,200.00
2022-08-02T04:04:05.986Z,204.00
2022-08-02T04:05:05.904Z,212.00
2022-08-02T04:06:06.066Z,216.00
2022-08-02T04:07:07.628Z,216.00
2022-08-02T04:08:35.931Z,224.00
2022-08-02T04:09:06.894Z,232.00
2022-08-02T04:10:05.870Z,236.00
2022-08-02T04:11:05.933Z,240.00
2022-08-02T04:12:05.842Z,248.00
2022-08-02T04:13:05.857Z,256.00
2022-08-02T04:14:05.817Z,256.00
2022-08-02T04:15:05.830Z,260.00
2022-08-02T04:16:05.837Z,264.00
2022-08-02T04:17:05.784Z,268.00
2022-08-02T04:18:05.804Z,280.00
2022-08-02T04:19:05.792Z,288.00
2022-08-02T04:20:05.779Z,300.00
2022-08-02T04:21:05.775Z,320.00
2022-08-02T04:22:05.757Z,348.00
2022-08-02T04:23:05.744Z,360.00
2022-08-02T04:24:05.719Z,380.00
2022-08-02T04:25:06.774Z,384.00
2022-08-02T04:26:07.899Z,400.00
2022-08-02T04:27:49.303Z,408.00
2022-08-02T04:28:16.622Z,428.00
2022-08-02T04:29:06.687Z,440.00
2022-08-02T04:30:05.642Z,452.00
2022-08-02T04:31:05.677Z,468.00
2022-08-02T04:32:05.670Z,492.00
2022-08-02T04:33:05.628Z,528.00
2022-08-02T04:34:05.650Z,572.00
2022-08-02T04:35:21.119Z,608.00
2022-08-02T04:36:07.684Z,652.00
2022-08-02T04:37:05.590Z,676.00
2022-08-02T04:38:10.352Z,692.00
2022-08-02T04:39:06.604Z,712.00
2022-08-02T04:40:05.569Z,724.00
2022-08-02T04:41:05.612Z,740.00
2022-08-02T04:42:05.604Z,768.00
2022-08-02T04:43:05.579Z,792.00
2022-08-02T04:44:05.555Z,828.00
2022-08-02T04:45:05.534Z,868.00
2022-08-02T04:46:05.573Z,928.00
2022-08-02T04:47:06.908Z,980.00
2022-08-02T04:48:06.680Z,1012.00
2022-08-02T04:49:05.616Z,1064.00
2022-08-02T04:50:05.491Z,1156.00
2022-08-02T04:51:05.478Z,1240.00
2022-08-02T04:52:05.600Z,1272.00
2022-08-02T04:53:05.468Z,1312.00
2022-08-02T04:54:09.466Z,1384.00
2022-08-02T04:55:05.496Z,1428.00
2022-08-02T04:56:05.460Z,1488.00
2022-08-02T04:57:05.516Z,1500.00
2022-08-02T04:58:23.839Z,1520.00
2022-08-02T04:59:07.549Z,1544.00
2022-08-02T05:00:05.368Z,1572.00
2022-08-02T05:01:05.607Z,1620.00
2022-08-02T05:02:05.491Z,1624.00
2022-08-02T05:03:05.352Z,1604.00
2022-08-02T05:04:05.363Z,1628.00
2022-08-02T05:05:10.058Z,1648.00
2022-08-02T05:06:18.806Z,1676.00
2022-08-02T05:07:06.312Z,1664.00
2022-08-02T05:08:05.308Z,1612.00
2022-08-02T05:09:05.302Z,1464.00
2022-08-02T05:10:05.283Z,1388.00
2022-08-02T05:11:05.318Z,1348.00
2022-08-02T05:12:05.507Z,1320.00
2022-08-02T05:13:05.265Z,1288.00
2022-08-02T05:14:05.313Z,1224.00
2022-08-02T05:15:05.179Z,1100.00
2022-08-02T05:16:05.205Z,1080.00
2022-08-02T05:17:05.564Z,1068.00
2022-08-02T05:20:19.610Z,860.00
2022-08-02T05:21:19.624Z,872.00
2022-08-02T05:22:19.642Z,920.00
2022-08-02T05:23:19.851Z,908.00
2022-08-02T05:24:19.502Z,840.00
2022-08-02T05:25:19.492Z,760.00
2022-08-02T05:26:20.716Z,744.00
2022-08-02T05:27:21.476Z,728.00
2022-08-02T05:28:20.651Z,752.00
2022-08-02T05:29:20.707Z,792.00
2022-08-02T05:30:20.658Z,876.00
2022-08-02T05:31:20.666Z,988.00
2022-08-02T05:32:20.610Z,892.00
2022-08-02T05:33:20.618Z,856.00
2022-08-02T05:34:20.591Z,904.00
2022-08-02T05:35:20.541Z,872.00
2022-08-02T05:36:20.636Z,892.00
2022-08-02T05:37:20.578Z,988.00
2022-08-02T05:38:25.185Z,1084.00
2022-08-02T05:39:21.569Z,1104.00
2022-08-02T05:40:25.579Z,1496.00
2022-08-02T05:41:21.602Z,1716.00
2022-08-02T05:42:20.492Z,1864.00
2022-08-02T05:43:20.979Z,1892.00
2022-08-02T05:44:20.481Z,1960.00
2022-08-02T05:45:20.534Z,2008.00
2022-08-02T05:46:20.478Z,1964.00
2022-08-02T05:47:20.477Z,1912.00
2022-08-02T05:48:20.498Z,1824.00
2022-08-02T05:49:20.707Z,1756.00
2022-08-02T05:50:20.454Z,1820.00
2022-08-02T05:51:20.436Z,1904.00
2022-08-02T05:52:20.414Z,1872.00
2022-08-02T05:53:20.407Z,1784.00
2022-08-02T05:54:20.373Z,1768.00
2022-08-02T05:55:20.422Z,1764.00
2022-08-02T05:56:20.399Z,1776.00
2022-08-02T05:57:20.566Z,2028.00
2022-08-02T05:58:20.365Z,1948.00
2022-08-02T05:59:20.385Z,1756.00
2022-08-02T06:00:20.781Z,1876.00
2022-08-02T06:01:20.435Z,2192.00
2022-08-02T06:02:20.626Z,1992.00
2022-08-02T06:03:20.335Z,2140.00
2022-08-02T06:04:20.287Z,2396.00
2022-08-02T06:05:20.276Z,2460.00
2022-08-02T06:06:20.331Z,2684.00
2022-08-02T06:07:20.377Z,2924.00
2022-08-02T06:08:20.256Z,2812.00
2022-08-02T06:09:21.802Z,2860.00
2022-08-02T06:10:21.275Z,2904.00
2022-08-02T06:11:20.236Z,2844.00
2022-08-02T06:12:20.297Z,2928.00
2022-08-02T06:13:20.245Z,2764.00
2022-08-02T06:14:20.234Z,2284.00
2022-08-02T06:15:20.196Z,1780.00
2022-08-02T06:16:31.768Z,1848.00
2022-08-02T06:17:21.157Z,2208.00
2022-08-02T06:18:20.214Z,2280.00
2022-08-02T06:19:20.163Z,2568.00
2022-08-02T06:20:20.245Z,2940.00
2022-08-02T06:22:31.917Z,3032.00
2022-08-02T06:22:33.962Z,3000.00
2022-08-02T06:23:21.143Z,3140.00
2022-08-02T06:24:20.114Z,3076.00
2022-08-02T06:25:48.472Z,2128.00
2022-08-02T06:26:21.132Z,1908.00
2022-08-02T06:27:20.209Z,2016.00
2022-08-02T06:28:20.129Z,2608.00
2022-08-02T06:29:20.086Z,3056.00
2022-08-02T06:30:20.045Z,3008.00
2022-08-02T06:31:20.073Z,3036.00
2022-08-02T06:32:20.043Z,2696.00
2022-08-02T06:33:20.072Z,3064.00
2022-08-02T06:34:20.032Z,3036.00
2022-08-02T06:35:20.037Z,3068.00
2022-08-02T06:36:20.026Z,2908.00
2022-08-02T06:37:19.986Z,2528.00
2022-08-02T06:38:19.997Z,2320.00
2022-08-02T06:39:19.923Z,2240.00
2022-08-02T06:40:19.963Z,2336.00
2022-08-02T06:41:20.004Z,2388.00
2022-08-02T06:42:25.044Z,2800.00
2022-08-02T06:43:19.910Z,2984.00
2022-08-02T06:44:45.644Z,3020.00
2022-08-02T06:45:21.920Z,3120.00
2022-08-02T06:46:57.215Z,3340.00
2022-08-02T06:47:20.920Z,3600.00
2022-08-02T06:48:19.895Z,3632.00
2022-08-02T06:49:19.906Z,3516.00
2022-08-02T06:50:19.888Z,3520.00
2022-08-02T06:51:19.914Z,3496.00
2022-08-02T06:52:21.442Z,3560.00
2022-08-02T06:53:19.856Z,3548.00
2022-08-02T06:54:19.815Z,3584.00
2022-08-02T06:55:19.764Z,3464.00
2022-08-02T06:56:19.820Z,3672.00
2022-08-02T06:57:19.770Z,3676.00
2022-08-02T06:58:19.764Z,3484.00
2022-08-02T06:59:19.724Z,3332.00
2022-08-02T07:00:19.729Z,3564.00
2022-08-02T07:01:20.306Z,3696.00
2022-08-02T07:02:19.706Z,3972.00
2022-08-02T07:03:20.177Z,4116.00
2022-08-02T07:04:20.307Z,3996.00
2022-08-02T07:05:21.071Z,3992.00
2022-08-02T07:06:19.867Z,4128.00
2022-08-02T07:07:19.872Z,4276.00
2022-08-02T07:08:19.974Z,4240.00
2022-08-02T07:09:21.346Z,4044.00
2022-08-02T07:10:20.745Z,4000.00
2022-08-02T07:11:19.802Z,4052.00
2022-08-02T07:12:19.675Z,3836.00
2022-08-02T07:13:19.607Z,3436.00
2022-08-02T07:14:19.637Z,3428.00
2022-08-02T07:15:19.560Z,3896.00
2022-08-02T07:16:19.738Z,3424.00
2022-08-02T07:17:19.576Z,3148.00
2022-08-02T07:18:19.690Z,3656.00
2022-08-02T07:19:19.607Z,4356.00
2022-08-02T07:20:19.712Z,4604.00
2022-08-02T07:21:19.616Z,4792.00
2022-08-02T07:22:20.887Z,5008.00
2022-08-02T07:23:20.354Z,5040.00
2022-08-02T07:24:19.608Z,4820.00
2022-08-02T07:26:07.993Z,4796.00
2022-08-02T07:26:19.975Z,5036.00
2022-08-02T07:27:46.446Z,5308.00
2022-08-02T07:28:24.073Z,4968.00
2022-08-02T07:29:21.867Z,4476.00
2022-08-02T07:30:52.230Z,3672.00
2022-08-02T07:31:20.451Z,3768.00
2022-08-02T07:32:20.056Z,4668.00
2022-08-02T07:33:39.012Z,4364.00
2022-08-02T07:34:20.384Z,4140.00
2022-08-02T07:35:19.942Z,5020.00
2022-08-02T07:36:22.502Z,5104.00
2022-08-02T07:37:35.711Z,4828.00
2022-08-02T07:38:20.475Z,4828.00
2022-08-02T07:39:19.484Z,5264.00
2022-08-02T07:40:20.788Z,5112.00
2022-08-02T07:41:19.733Z,4088.00
2022-08-02T07:42:19.502Z,2912.00
2022-08-02T07:43:19.867Z,3296.00
2022-08-02T07:44:19.638Z,4880.00
2022-08-02T07:45:19.397Z,5100.00
2022-08-02T07:46:19.351Z,5016.00
2022-08-02T07:52:27.920Z,5020.00
2022-08-02T07:53:49.764Z,5448.00
2022-08-02T07:54:29.616Z,5512.00
2022-08-02T07:55:39.074Z,5164.00
2022-08-02T07:56:29.520Z,4732.00
2022-08-02T07:57:28.578Z,4376.00
2022-08-02T07:58:28.493Z,4408.00
2022-08-02T08:00:01.034Z,4096.00
2022-08-02T08:00:28.917Z,3972.00
2022-08-02T08:01:29.037Z,4072.00
2022-08-02T08:03:02.249Z,3640.00
2022-08-02T08:03:28.979Z,3600.00
2022-08-02T08:04:28.678Z,3936.00
2022-08-02T08:05:28.477Z,4008.00
2022-08-02T08:06:29.433Z,3864.00
2022-08-02T08:12:28.653Z,3712.00
2022-08-02T08:13:28.684Z,3864.00
2022-08-02T08:14:30.370Z,3664.00
2022-08-02T08:15:35.894Z,3764.00
2022-08-02T08:16:35.709Z,3752.00
2022-08-02T08:19:50.939Z,3472.00
2022-08-02T08:20:41.266Z,3540.00
2022-08-02T08:21:40.205Z,3476.00
2022-08-02T08:27:27.674Z,3940.00
2022-08-02T08:28:27.760Z,3920.00
2022-08-02T08:29:27.672Z,3908.00
2022-08-02T08:30:27.647Z,3940.00
2022-08-02T08:31:27.539Z,3968.00
2022-08-02T08:32:27.532Z,4000.00
2022-08-02T08:33:27.980Z,3960.00
2022-08-02T08:34:27.507Z,3952.00
2022-08-02T08:35:28.674Z,3940.00
2022-08-02T08:36:28.691Z,3384.00
2022-08-02T08:37:28.735Z,3516.00
2022-08-02T08:38:28.690Z,3920.00
2022-08-02T08:39:28.775Z,3928.00
2022-08-02T08:40:30.954Z,3788.00
2022-08-02T08:45:11.614Z,3864.00
2022-08-02T08:46:11.780Z,3916.00
2022-08-02T08:47:11.684Z,3700.00
2022-08-02T08:48:11.553Z,4004.00
2022-08-02T08:49:12.856Z,4004.00
2022-08-02T08:50:18.085Z,4020.00
2022-08-02T08:51:14.333Z,4020.00
2022-08-02T08:54:59.308Z,3980.00
2022-08-02T08:55:58.987Z,4052.00
2022-08-02T08:57:01.837Z,4096.00
2022-08-02T09:03:07.377Z,4084.00
2022-08-02T09:04:07.453Z,4104.00
2022-08-02T09:05:07.523Z,4144.00
2022-08-02T09:06:07.954Z,4200.00
2022-08-02T09:08:45.495Z,4272.00
2022-08-02T09:09:45.396Z,4208.00
2022-08-02T09:10:45.472Z,4172.00
2022-08-02T09:11:45.424Z,4208.00
2022-08-02T09:12:45.352Z,4172.00
2022-08-02T09:13:46.428Z,4192.00
2022-08-02T09:19:45.665Z,4020.00
2022-08-02T09:20:41.994Z,4032.00
2022-08-02T09:21:42.132Z,4040.00
2022-08-02T09:22:42.020Z,4100.00
2022-08-02T09:23:43.828Z,4144.00
2022-08-02T09:24:43.021Z,4132.00
2022-08-02T09:28:20.693Z,4220.00
2022-08-02T09:29:21.580Z,4108.00
2022-08-02T09:30:20.684Z,3776.00
2022-08-02T09:31:20.462Z,3916.00
2022-08-02T09:37:24.088Z,4152.00
2022-08-02T09:38:24.615Z,4224.00
2022-08-02T09:41:45.083Z,4288.00
2022-08-02T09:44:55.067Z,4516.00
2022-08-02T09:45:56.074Z,4520.00
2022-08-02T09:46:55.015Z,4696.00
2022-08-02T09:47:55.087Z,4672.00
2022-08-02T09:48:54.974Z,4712.00
2022-08-02T09:49:54.933Z,4748.00
2022-08-02T09:50:54.848Z,4760.00
2022-08-02T09:51:54.861Z,4816.00
2022-08-02T09:52:54.902Z,4988.00
2022-08-02T09:54:05.958Z,5100.00
2022-08-02T09:54:55.878Z,5140.00
2022-08-02T09:55:54.925Z,5116.00
2022-08-02T09:56:56.016Z,5152.00
2022-08-02T09:57:56.188Z,5144.00
2022-08-02T09:58:56.882Z,5168.00
2022-08-02T09:59:56.010Z,5192.00
2022-08-02T10:00:56.184Z,5224.00
2022-08-02T10:02:01.450Z,5308.00
2022-08-02T10:02:59.016Z,5432.00
2022-08-02T10:03:56.437Z,5656.00
2022-08-02T10:05:22.816Z,5932.00
2022-08-02T10:06:02.362Z,6012.00
2022-08-02T10:06:57.148Z,5748.00
2022-08-02T10:07:56.092Z,5716.00
2022-08-02T10:08:56.480Z,5716.00
2022-08-02T10:09:55.924Z,4700.00
2022-08-02T10:10:56.773Z,5320.00
2022-08-02T10:11:56.141Z,5156.00
2022-08-02T10:12:56.123Z,4028.00
2022-08-02T10:18:37.772Z,5252.00
2022-08-02T10:19:59.736Z,5300.00
2022-08-02T10:20:20.485Z,5184.00
2022-08-02T10:21:19.243Z,5140.00
2022-08-02T10:25:55.819Z,5220.00
2022-08-02T10:26:55.941Z,4976.00
2022-08-02T10:28:05.205Z,5268.00
2022-08-02T10:28:58.874Z,5252.00
2022-08-02T10:29:56.985Z,4992.00
2022-08-02T10:31:00.927Z,5296.00
2022-08-02T10:31:58.450Z,5148.00
2022-08-02T10:33:34.474Z,5168.00
2022-08-02T10:34:07.076Z,5068.00
2022-08-02T10:35:31.756Z,5068.00
2022-08-02T10:39:23.792Z,5468.00
2022-08-02T10:45:25.849Z,5496.00
2022-08-02T10:46:43.340Z,5468.00
2022-08-02T10:47:38.426Z,5524.00
2022-08-02T10:51:39.082Z,5484.00
2022-08-02T10:52:39.008Z,5844.00
2022-08-02T10:53:40.736Z,5744.00
2022-08-02T10:54:38.921Z,5828.00
2022-08-02T10:57:59.800Z,6080.00
2022-08-02T11:00:27.147Z,6040.00
2022-08-02T11:01:38.600Z,5972.00
2022-08-02T11:02:36.081Z,5968.00
2022-08-02T11:03:26.347Z,5956.00
2022-08-02T11:04:27.830Z,5832.00
2022-08-02T11:05:42.797Z,5872.00
2022-08-02T11:06:31.341Z,6200.00
2022-08-02T11:07:29.489Z,6212.00
2022-08-02T11:08:50.132Z,6176.00
2022-08-02T11:09:32.498Z,6136.00
2022-08-02T11:10:28.564Z,6056.00
2022-08-02T11:11:54.392Z,6020.00
2022-08-02T11:19:35.533Z,6288.00
2022-08-02T11:31:05.207Z,6088.00
2022-08-02T11:32:16.380Z,6148.00
2022-08-02T11:33:06.899Z,6000.00
2022-08-02T11:34:09.584Z,5932.00
2022-08-02T11:35:09.198Z,6220.00
2022-08-02T11:36:08.663Z,6376.00
2022-08-02T11:38:11.607Z,6364.00
2022-08-02T11:38:22.245Z,6416.00
2022-08-02T11:41:47.171Z,6344.00
2022-08-02T11:42:29.009Z,6204.00
2022-08-02T11:43:27.436Z,6360.00
2022-08-02T11:44:53.984Z,6072.00
2022-08-02T11:45:33.877Z,5984.00
2022-08-02T11:47:11.536Z,6644.00
2022-08-02T11:47:29.490Z,6660.00
2022-08-02T11:50:54.800Z,5900.00
2022-08-02T11:52:24.246Z,6176.00
2022-08-02T11:53:05.072Z,6400.00
2022-08-02T11:54:08.163Z,6404.00
2022-08-02T11:56:29.819Z,6612.00
2022-08-02T11:59:09.861Z,6896.00
2022-08-02T12:00:12.517Z,6912.00
2022-08-02T12:01:12.035Z,7088.00
2022-08-02T12:02:14.742Z,7112.00
2022-08-02T12:03:13.502Z,3952.00
2022-08-02T12:04:10.920Z,3808.00
2022-08-02T12:05:11.742Z,6804.00
2022-08-02T12:06:16.810Z,6616.00
2022-08-02T12:07:14.893Z,6744.00
2022-08-02T12:08:10.839Z,6828.00
2022-08-02T12:09:18.763Z,6920.00
2022-08-02T12:10:10.996Z,7296.00
2022-08-02T12:11:11.814Z,7472.00
2022-08-02T12:12:11.251Z,7272.00
2022-08-02T12:13:10.964Z,7168.00
2022-08-02T12:14:25.190Z,7576.00
2022-08-02T12:15:12.120Z,7408.00
2022-08-02T12:16:24.100Z,7308.00
2022-08-02T12:17:13.334Z,7108.00
2022-08-02T12:18:11.635Z,7116.00
2022-08-02T12:21:55.107Z,7232.00
2022-08-02T12:22:55.157Z,7516.00
2022-08-02T12:24:00.954Z,7584.00
2022-08-02T12:24:54.938Z,7744.00
2022-08-02T12:25:55.556Z,7868.00
2022-08-02T12:26:55.128Z,7892.00
2022-08-02T12:27:55.607Z,7768.00
2022-08-02T12:30:54.098Z,8280.00
2022-08-02T12:31:56.827Z,8536.00
2022-08-02T12:32:54.223Z,8864.00
2022-08-02T12:33:54.177Z,9168.00
2022-08-02T12:34:53.911Z,9352.00
2022-08-02T12:35:53.881Z,9588.00
2022-08-02T12:36:55.187Z,9616.00
2022-08-02T12:37:55.160Z,9236.00
2022-08-02T12:38:55.006Z,9076.00
2022-08-02T12:39:55.247Z,8840.00
2022-08-02T12:40:55.041Z,8580.00
2022-08-02T12:41:55.301Z,8416.00
2022-08-02T12:42:54.945Z,5848.00
2022-08-02T12:43:55.077Z,5716.00
2022-08-02T12:44:54.956Z,5720.00
2022-08-02T12:45:54.967Z,5880.00
2022-08-02T12:46:55.134Z,5976.00
2022-08-02T12:47:55.355Z,8036.00
2022-08-02T12:49:16.691Z,7740.00
2022-08-02T12:49:57.162Z,8404.00
2022-08-02T12:50:58.127Z,8720.00
2022-08-02T12:51:57.638Z,9220.00
2022-08-02T12:52:57.372Z,9764.00
2022-08-02T12:53:59.608Z,9560.00
2022-08-02T12:54:55.847Z,9680.00
2022-08-02T12:55:59.401Z,9520.00
2022-08-02T12:56:56.186Z,9344.00
2022-08-02T12:57:54.950Z,8636.00
2022-08-02T12:58:54.945Z,9020.00
2022-08-02T12:59:54.889Z,9000.00
2022-08-02T13:00:55.113Z,8836.00
2022-08-02T13:01:54.892Z,8620.00
2022-08-02T13:02:55.593Z,8692.00
2022-08-02T13:04:11.737Z,8812.00
2022-08-02T13:04:55.788Z,8712.00
2022-08-02T13:05:56.912Z,8216.00
2022-08-02T13:06:54.819Z,7808.00
2022-08-02T13:07:54.721Z,7348.00
2022-08-02T13:08:54.880Z,6724.00
2022-08-02T13:10:02.720Z,7000.00
2022-08-02T13:10:55.749Z,8412.00
2022-08-02T13:11:54.747Z,8440.00
2022-08-02T13:12:54.878Z,8404.00
2022-08-02T13:13:54.687Z,8404.00
2022-08-02T13:14:54.688Z,8276.00
2022-08-02T13:15:54.638Z,8416.00
2022-08-02T13:16:54.624Z,8672.00
2022-08-02T13:17:54.837Z,6808.00
2022-08-02T13:18:54.704Z,7736.00
2022-08-02T13:19:54.626Z,7648.00
2022-08-02T13:20:54.696Z,8232.00
2022-08-02T13:22:02.556Z,8924.00
2022-08-02T13:22:55.578Z,8644.00
2022-08-02T13:23:55.827Z,8900.00
2022-08-02T13:24:55.586Z,9036.00
2022-08-02T13:25:54.571Z,6800.00
2022-08-02T13:26:54.801Z,7284.00
2022-08-02T13:27:58.491Z,9440.00
2022-08-02T13:28:58.801Z,9320.00
2022-08-02T13:29:55.597Z,9544.00
2022-08-02T13:30:54.600Z,9848.00
2022-08-02T13:31:54.576Z,9940.00
2022-08-02T13:32:59.080Z,10080.00
2022-08-02T13:33:56.537Z,10120.00
2022-08-02T13:36:18.559Z,9920.00
2022-08-02T13:36:20.176Z,9852.00
2022-08-02T13:37:22.934Z,10004.00
2022-08-02T13:38:24.623Z,9692.00
2022-08-02T13:39:21.173Z,9488.00
2022-08-02T13:40:22.126Z,9188.00
2022-08-02T13:41:21.215Z,9260.00
2022-08-02T13:42:20.275Z,9916.00
2022-08-02T13:43:20.194Z,10664.00
2022-08-02T13:44:20.124Z,10752.00
2022-08-02T13:45:20.186Z,10648.00
2022-08-02T13:46:28.968Z,10352.00
2022-08-02T13:47:36.021Z,10540.00
2022-08-02T13:48:21.088Z,10544.00
2022-08-02T13:49:21.809Z,10484.00
2022-08-02T13:50:21.069Z,10676.00
2022-08-02T13:51:20.253Z,10944.00
2022-08-02T13:52:20.076Z,11032.00
2022-08-02T13:53:20.345Z,11152.00
2022-08-02T13:54:22.472Z,11404.00
2022-08-02T13:55:19.937Z,11188.00
2022-08-02T13:56:20.482Z,10968.00
2022-08-02T13:57:21.454Z,10716.00
2022-08-02T13:58:20.070Z,10484.00
2022-08-02T13:59:54.656Z,10508.00
2022-08-02T14:00:35.348Z,10460.00
2022-08-02T14:01:21.297Z,10384.00
2022-08-02T14:02:20.044Z,10304.00
2022-08-02T14:04:45.967Z,10308.00
2022-08-02T14:04:47.527Z,10316.00
2022-08-02T14:05:49.075Z,10412.00
2022-08-02T14:06:47.745Z,10472.00
2022-08-02T14:07:47.760Z,10396.00
2022-08-02T14:08:47.710Z,10628.00
2022-08-02T14:09:47.635Z,10812.00
2022-08-02T14:10:47.636Z,10980.00
2022-08-02T14:11:47.695Z,11132.00
2022-08-02T14:12:48.312Z,10992.00
2022-08-02T14:13:48.714Z,10872.00
2022-08-02T14:16:28.396Z,11040.00
2022-08-02T14:16:59.344Z,11360.00
2022-08-02T14:17:33.798Z,11420.00
2022-08-02T14:18:38.132Z,11448.00
2022-08-02T14:19:34.431Z,11528.00
2022-08-02T14:20:33.512Z,11760.00
2022-08-02T14:21:45.915Z,11896.00
2022-08-02T14:22:34.678Z,12096.00
2022-08-02T14:23:49.020Z,12352.00
2022-08-02T14:24:34.657Z,13440.00
2022-08-02T14:25:33.582Z,19040.00
2022-08-02T14:26:33.775Z,31648.00
2022-08-02T14:27:39.436Z,40224.00
2022-08-02T14:28:34.585Z,40992.00
2022-08-02T14:29:34.335Z,42272.00
2022-08-02T14:30:33.575Z,41536.00
2022-08-02T14:31:33.520Z,40128.00
2022-08-02T14:32:33.888Z,38400.00
2022-08-02T14:33:33.706Z,41312.00
2022-08-02T14:34:33.913Z,40448.00
2022-08-02T14:35:33.519Z,40320.00
2022-08-02T14:36:33.516Z,40352.00
2022-08-02T14:37:33.491Z,37728.00
2022-08-02T14:40:05.613Z,37024.00
2022-08-02T14:40:30.893Z,39552.00
2022-08-02T14:41:10.127Z,40480.00
2022-08-02T14:42:09.085Z,38208.00
2022-08-02T14:43:08.975Z,36672.00
2022-08-02T14:44:08.967Z,33664.00
2022-08-02T14:45:08.878Z,31584.00
2022-08-02T14:46:08.875Z,28160.00
2022-08-02T14:47:09.523Z,26240.00
2022-08-02T14:48:08.904Z,25024.00
2022-08-02T14:49:10.053Z,26656.00
2022-08-02T14:50:09.019Z,25184.00
2022-08-02T14:51:09.071Z,23520.00
2022-08-02T14:52:08.819Z,20640.00
2022-08-02T14:53:12.080Z,20416.00
2022-08-02T14:54:08.917Z,19264.00
2022-08-02T14:55:08.824Z,17920.00
2022-08-02T14:56:08.957Z,19456.00
2022-08-02T14:57:08.790Z,19488.00
2022-08-02T14:58:09.193Z,17824.00
2022-08-02T14:59:08.809Z,17984.00
2022-08-02T15:00:08.721Z,22720.00
2022-08-02T15:01:09.107Z,22240.00
2022-08-02T15:02:09.200Z,19296.00
2022-08-02T15:03:09.038Z,23840.00
2022-08-02T15:04:08.973Z,22528.00
2022-08-02T15:05:11.102Z,24704.00
2022-08-02T15:06:09.452Z,30464.00
2022-08-02T15:07:11.256Z,35840.00
2022-08-02T15:08:27.107Z,41760.00
2022-08-02T15:09:11.679Z,44480.00
2022-08-02T15:10:08.697Z,45504.00
2022-08-02T15:11:20.257Z,40800.00
2022-08-02T15:12:09.654Z,38048.00
2022-08-02T15:13:09.401Z,40864.00
2022-08-02T15:14:09.313Z,39712.00
2022-08-02T15:15:09.461Z,32928.00
2022-08-02T15:16:08.664Z,31168.00
2022-08-02T15:17:08.561Z,30560.00
2022-08-02T15:18:09.115Z,31328.00
2022-08-02T15:19:08.642Z,33888.00
2022-08-02T15:20:24.645Z,32448.00
2022-08-02T15:21:35.754Z,34944.00
2022-08-02T15:22:11.354Z,39360.00
2022-08-02T15:23:10.661Z,49504.00
2022-08-02T15:24:10.897Z,55776.00
2022-08-02T15:25:14.780Z,14520.00
2022-08-02T15:26:10.570Z,13464.00
2022-08-02T15:27:08.535Z,68352.00
2022-08-02T15:28:08.515Z,63168.00
2022-08-02T15:29:09.476Z,60832.00
2022-08-02T15:30:09.486Z,59776.00
2022-08-02T15:31:09.054Z,60320.00
2022-08-02T15:32:08.736Z,61952.00
2022-08-02T15:33:08.436Z,56288.00
2022-08-02T15:34:08.446Z,57344.00
2022-08-02T15:35:08.897Z,54368.00
2022-08-02T15:36:08.467Z,58176.00
2022-08-02T15:37:08.471Z,53152.00
2022-08-02T15:38:09.025Z,54560.00
2022-08-02T15:39:09.055Z,59008.00
2022-08-02T15:40:08.654Z,60832.00
2022-08-02T15:41:08.535Z,61728.00
2022-08-02T15:42:08.516Z,54432.00
2022-08-02T15:43:08.391Z,49728.00
2022-08-02T15:44:08.429Z,54016.00
2022-08-02T15:45:08.498Z,53216.00
2022-08-02T15:46:09.321Z,58624.00
2022-08-02T15:47:08.347Z,61888.00
2022-08-02T15:48:08.517Z,54400.00
2022-08-02T15:49:09.341Z,45312.00
2022-08-02T15:50:08.781Z,42080.00
2022-08-02T15:51:09.001Z,43712.00
2022-08-02T15:52:08.569Z,48896.00
2022-08-02T15:53:08.540Z,58144.00
2022-08-02T15:54:08.319Z,65088.00
2022-08-02T15:55:08.343Z,68384.00
2022-08-02T15:56:12.593Z,56352.00
2022-08-02T15:57:09.367Z,60032.00
2022-08-02T15:58:08.288Z,63328.00
2022-08-02T15:59:09.248Z,67552.00
2022-08-02T16:00:15.755Z,68416.00
2022-08-02T16:01:09.920Z,69760.00
2022-08-02T16:02:08.424Z,59680.00
2022-08-02T16:03:08.537Z,50560.00
2022-08-02T16:04:08.194Z,15520.00
2022-08-02T16:05:13.993Z,15280.00
2022-08-02T16:06:09.324Z,15168.00
2022-08-02T16:07:08.338Z,13068.00
2022-08-02T16:08:08.379Z,10728.00
2022-08-02T16:09:08.176Z,11024.00
2022-08-02T16:10:08.195Z,11356.00
2022-08-02T16:11:08.347Z,11008.00
2022-08-02T16:12:08.138Z,11116.00
2022-08-02T16:13:08.120Z,10276.00
2022-08-02T16:14:09.613Z,9924.00
2022-08-02T16:19:48.363Z,11472.00
2022-08-02T16:20:31.606Z,11592.00
2022-08-02T16:21:30.643Z,12268.00
2022-08-02T16:22:30.507Z,19744.00
2022-08-02T16:24:02.145Z,21088.00
2022-08-02T16:24:31.403Z,25024.00
2022-08-02T16:25:30.700Z,32000.00
2022-08-02T16:26:30.369Z,27936.00
2022-08-02T16:34:45.159Z,7092.00
2022-08-02T16:35:34.019Z,6952.00
2022-08-02T16:36:32.134Z,6628.00
2022-08-02T16:37:51.953Z,6832.00
2022-08-02T16:38:32.990Z,7096.00
2022-08-02T16:39:32.035Z,9244.00
2022-08-02T16:40:31.849Z,8608.00
2022-08-02T16:41:52.193Z,9828.00
2022-08-02T16:42:32.895Z,9576.00
2022-08-02T16:43:32.116Z,6744.00
2022-08-02T16:44:31.850Z,6096.00
2022-08-02T16:45:32.537Z,6220.00
2022-08-02T16:46:31.855Z,6272.00
2022-08-02T16:47:37.165Z,6080.00
2022-08-02T16:48:32.843Z,5972.00
2022-08-02T16:50:07.391Z,5968.00
2022-08-02T16:50:32.926Z,6044.00
2022-08-02T16:51:31.778Z,6096.00